Time;durP1;ratioP1;P1;durP2;ratioP2;P2;SDS_P1;SDS_P2;PMS_P1;PMS_P2;Temp;Humidity;BMP_temperature;BMP_pressure;BME280_temperature;BME280_humidity;BME280_pressure;Samples;Min_cycle;Max_cycle;Signal;HPM_P1;HPM_P2
2021/07/21 00:01:20;;;;;;;15.30;9.55;;;;;;;24.11;54.06;99652.00;5049270;28;20075;-22
2021/07/21 00:03:46;;;;;;;10.82;8.68;;;;;;;24.08;54.32;99671.72;5049666;28;20566;-22
2021/07/21 00:06:11;;;;;;;11.30;9.43;;;;;;;24.01;54.80;99672.19;5049245;28;20091;-22
2021/07/21 00:08:37;;;;;;;14.40;10.23;;;;;;;24.21;53.99;99668.84;5049225;28;20044;-23
2021/07/21 00:13:46;;;;;;;11.77;9.20;;;;;;;23.73;54.73;99652.56;5049294;28;20079;-22
2021/07/21 00:16:17;;;;;;;11.65;9.65;;;;;;;24.05;54.25;99676.69;5049295;28;20752;-22
2021/07/21 00:21:12;;;;;;;10.77;8.23;;;;;;;23.83;54.66;99679.53;5049051;28;20032;-22
2021/07/21 00:23:41;;;;;;;12.70;9.02;;;;;;;23.53;55.09;99665.63;5049001;28;20032;-22
2021/07/21 00:26:06;;;;;;;12.15;8.98;;;;;;;23.51;54.86;99656.19;5049143;28;20041;-22
2021/07/21 00:28:34;;;;;;;11.20;8.98;;;;;;;23.65;54.67;99684.09;5048653;28;20403;-22
2021/07/21 00:31:00;;;;;;;10.68;8.57;;;;;;;23.54;54.91;99656.38;5048694;28;20409;-22
2021/07/21 00:33:26;;;;;;;11.75;9.52;;;;;;;23.70;54.56;99664.91;5048791;28;20448;-22
2021/07/21 00:35:51;;;;;;;11.18;8.52;;;;;;;23.83;54.07;99688.50;5048912;28;20103;-22
2021/07/21 00:38:17;;;;;;;11.52;9.27;;;;;;;23.79;54.24;99664.94;5048478;28;20047;-22
2021/07/21 00:40:42;;;;;;;12.38;8.57;;;;;;;23.73;54.04;99674.34;5048408;28;20037;-22
2021/07/21 00:43:08;;;;;;;11.63;8.65;;;;;;;23.62;54.51;99663.75;5048445;28;20074;-22
2021/07/21 00:45:33;;;;;;;14.88;9.90;;;;;;;23.66;54.14;99672.09;5048279;28;20419;-22
2021/07/21 00:47:59;;;;;;;14.52;9.68;;;;;;;23.67;54.25;99679.13;5048625;28;20029;-22
2021/07/21 00:50:25;;;;;;;12.82;9.75;;;;;;;23.63;54.48;99675.44;5047689;28;20095;-22
2021/07/21 00:52:50;;;;;;;13.32;10.18;;;;;;;23.65;54.34;99674.00;5048174;28;20028;-22
2021/07/21 00:55:16;;;;;;;14.15;10.02;;;;;;;23.75;54.12;99674.84;5048353;28;20039;-23
2021/07/21 00:57:41;;;;;;;10.57;8.88;;;;;;;23.63;54.29;99665.34;5048165;28;20029;-22
2021/07/21 01:00:09;;;;;;;12.75;9.35;;;;;;;23.66;54.33;99670.16;5048328;28;20040;-22
2021/07/21 01:02:35;;;;;;;;;;;;;;;23.52;54.56;99674.94;5048250;28;20094;-22
2021/07/21 01:05:00;;;;;;;10.98;8.75;;;;;;;23.36;55.45;99671.03;5030342;28;19913;-22
2021/07/21 01:07:26;;;;;;;11.82;9.52;;;;;;;23.31;55.50;99662.97;5048108;28;20511;-23
2021/07/21 01:09:52;;;;;;;11.93;9.40;;;;;;;23.35;55.00;99653.06;5048281;28;20867;-22
2021/07/21 01:12:53;;;;;;;11.68;8.98;;;;;;;23.37;54.91;99662.53;5013676;28;20037;-22
2021/07/21 01:15:21;;;;;;;14.38;10.07;;;;;;;23.37;55.02;99678.06;5048201;28;20033;-22
2021/07/21 01:18:02;;;;;;;10.80;7.93;;;;;;;23.36;55.12;99681.91;5030257;28;20045;-22
2021/07/21 01:20:33;;;;;;;10.55;8.65;;;;;;;23.33;55.01;99671.63;5047673;28;20029;-22
2021/07/21 01:23:11;;;;;;;11.77;9.02;;;;;;;23.26;54.78;99664.72;5047998;28;20492;-23
2021/07/21 01:26:10;;;;;;;12.68;8.88;;;;;;;23.29;54.91;99670.66;5030298;28;20498;-22
2021/07/21 01:28:36;;;;;;;12.10;8.25;;;;;;;23.35;54.58;99677.56;5012376;28;20512;-23
2021/07/21 01:31:02;;;;;;;14.30;8.07;;;;;;;23.18;54.66;99665.50;5030237;28;20116;-22
2021/07/21 01:33:28;;;;;;;11.25;8.93;;;;;;;23.27;54.73;99673.69;5029511;28;20124;-22
2021/07/21 01:36:15;;;;;;;11.90;8.32;;;;;;;23.16;55.15;99669.66;5029755;28;20032;-22
2021/07/21 01:38:42;;;;;;;11.93;7.57;;;;;;;23.07;55.00;99664.16;5030781;28;20488;-23
2021/07/21 01:41:14;;;;;;;11.90;8.70;;;;;;;23.09;54.85;99656.50;5013278;28;20053;-23
2021/07/21 01:43:41;;;;;;;12.95;8.57;;;;;;;23.15;54.84;99665.31;5047414;28;20607;-22
2021/07/21 01:46:07;;;;;;;11.93;8.25;;;;;;;23.12;54.80;99674.91;5013199;28;20121;-23
2021/07/21 01:48:34;;;;;;;14.52;8.40;;;;;;;23.15;54.91;99677.00;5012882;28;20049;-23
2021/07/21 01:51:00;;;;;;;12.13;8.50;;;;;;;22.94;55.13;99665.00;5029275;28;20079;-23
2021/07/21 01:53:26;;;;;;;11.68;8.63;;;;;;;23.03;54.62;99663.97;5029438;28;20469;-22
2021/07/21 01:55:52;;;;;;;13.65;8.88;;;;;;;23.07;54.89;99664.16;5013065;28;20045;-22
2021/07/21 01:58:17;;;;;;;12.60;8.75;;;;;;;23.10;54.70;99679.84;5029649;28;20086;-22
2021/07/21 02:00:43;;;;;;;11.98;8.52;;;;;;;23.01;54.69;99666.22;5012248;28;20037;-22
2021/07/21 02:03:08;;;;;;;13.48;8.65;;;;;;;23.02;54.88;99675.16;5047215;28;20025;-22
2021/07/21 02:05:34;;;;;;;14.90;8.30;;;;;;;22.81;55.51;99683.81;5012826;28;20468;-22
2021/07/21 02:08:01;;;;;;;10.15;7.05;;;;;;;22.84;55.32;99679.66;5029423;28;20036;-22
2021/07/21 02:10:27;;;;;;;11.73;8.60;;;;;;;22.87;55.43;99673.63;5029357;28;20037;-23
2021/07/21 02:12:58;;;;;;;10.35;7.22;;;;;;;22.94;54.98;99681.31;5047018;28;20029;-23
2021/07/21 02:15:24;;;;;;;12.35;8.43;;;;;;;23.05;55.04;99693.59;5028856;28;20111;-23
2021/07/21 02:17:49;;;;;;;10.52;7.88;;;;;;;22.96;54.84;99676.38;5047057;28;20035;-23
2021/07/21 02:20:15;;;;;;;11.52;8.23;;;;;;;22.98;54.51;99682.31;5046926;28;20033;-23
2021/07/21 02:22:42;;;;;;;13.20;8.65;;;;;;;22.92;54.54;99669.97;5029225;28;20036;-22
2021/07/21 02:25:08;;;;;;;14.02;7.68;;;;;;;22.99;54.41;99694.81;5029555;28;20040;-22
2021/07/21 02:27:34;;;;;;;12.25;8.10;;;;;;;23.06;54.48;99703.34;5013224;28;20061;-23
2021/07/21 02:30:00;;;;;;;10.73;7.47;;;;;;;22.91;54.28;99692.84;5047019;28;20642;-23
2021/07/21 02:32:31;;;;;;;13.15;8.15;;;;;;;22.97;54.46;99695.13;5028980;28;20052;-22
2021/07/21 02:34:57;;;;;;;13.13;8.20;;;;;;;22.92;54.52;99702.59;5046870;28;20029;-22
2021/07/21 02:37:23;;;;;;;13.88;8.68;;;;;;;22.87;54.63;99698.88;5046996;28;20037;-22
2021/07/21 02:39:49;;;;;;;13.50;7.63;;;;;;;22.73;54.74;99692.72;5047053;28;20040;-22
2021/07/21 02:42:15;;;;;;;11.07;7.53;;;;;;;22.83;54.68;99699.81;5046763;28;20040;-23
2021/07/21 02:44:41;;;;;;;11.05;6.80;;;;;;;22.66;55.00;99686.91;5028936;28;20025;-22
2021/07/21 02:47:07;;;;;;;11.48;7.78;;;;;;;22.81;54.60;99693.88;5047069;28;20033;-23
2021/07/21 02:49:32;;;;;;;14.02;7.95;;;;;;;22.75;54.72;99700.56;5046419;28;20099;-23
2021/07/21 02:52:11;;;;;;;12.68;8.05;;;;;;;22.77;54.40;99688.25;5012343;28;20033;-23
2021/07/21 02:54:42;;;;;;;13.07;7.47;;;;;;;22.98;54.01;99709.50;5030201;28;20029;-23
2021/07/21 02:57:29;;;;;;;13.07;8.35;;;;;;;22.83;54.26;99700.63;5046881;28;20102;-23
2021/07/21 02:59:56;;;;;;;12.88;8.02;;;;;;;22.86;54.45;99701.91;5046130;28;20051;-23
2021/07/21 03:02:26;;;;;;;11.30;7.70;;;;;;;22.76;54.36;99713.03;5028942;28;20091;-23
2021/07/21 03:04:52;;;;;;;12.68;8.95;;;;;;;22.84;54.44;99704.94;5012686;28;20064;-23
2021/07/21 03:07:18;;;;;;;14.38;8.40;;;;;;;22.96;54.24;99719.88;5028793;28;20037;-23
2021/07/21 03:09:43;;;;;;;14.40;8.32;;;;;;;22.92;54.07;99719.69;5028734;28;20040;-23
2021/07/21 03:12:09;;;;;;;11.95;7.88;;;;;;;22.80;54.18;99714.84;5028616;28;20032;-23
2021/07/21 03:14:38;;;;;;;12.18;7.63;;;;;;;22.86;53.91;99721.75;5012165;28;20029;-23
2021/07/21 03:17:05;;;;;;;11.27;7.90;;;;;;;22.90;53.68;99718.41;5028562;28;20025;-23
2021/07/21 03:19:31;;;;;;;14.27;8.77;;;;;;;22.77;54.00;99718.16;5046463;28;20025;-22
2021/07/21 03:21:57;;;;;;;11.75;7.63;;;;;;;22.83;53.98;99725.09;5028668;28;20485;-22
2021/07/21 03:24:23;;;;;;;17.30;8.15;;;;;;;22.78;54.25;99727.94;5046394;28;20040;-23
2021/07/21 03:26:50;;;;;;;15.50;7.85;;;;;;;22.72;54.44;99736.50;5029708;28;20075;-22
2021/07/21 03:29:15;;;;;;;13.93;9.20;;;;;;;22.84;53.86;99728.59;5049982;28;20025;-23
2021/07/21 03:31:41;;;;;;;12.23;8.15;;;;;;;22.80;53.77;99714.84;5031865;28;20078;-23
2021/07/21 03:34:09;;;;;;;17.58;8.75;;;;;;;22.92;53.75;99741.44;5032022;28;20512;-22
2021/07/21 03:36:36;;;;;;;15.73;9.18;;;;;;;22.87;53.54;99745.09;5049684;28;20021;-23
2021/07/21 03:39:03;;;;;;;13.32;8.20;;;;;;;22.96;53.70;99756.03;5032196;28;20409;-23
2021/07/21 03:41:31;;;;;;;11.15;7.72;;;;;;;22.87;53.80;99758.69;5049670;28;20108;-23
2021/07/21 03:43:56;;;;;;;13.82;7.97;;;;;;;22.99;53.47;99750.00;5015719;28;20090;-22
2021/07/21 03:46:21;;;;;;;14.00;8.60;;;;;;;22.99;53.16;99755.44;5031765;28;20033;-23
2021/07/21 03:48:47;;;;;;;14.18;8.88;;;;;;;23.05;53.07;99742.53;5030291;28;20037;-23
2021/07/21 03:51:13;;;;;;;13.27;9.05;;;;;;;23.02;53.18;99743.16;5015155;28;20119;-22
2021/07/21 03:53:38;;;;;;;12.60;7.90;;;;;;;22.96;53.28;99738.91;5049522;28;20028;-23
2021/07/21 03:56:04;;;;;;;12.65;8.27;;;;;;;23.09;53.27;99754.41;5015330;28;20090;-23
2021/07/21 03:58:29;;;;;;;14.25;9.18;;;;;;;23.07;53.32;99748.47;5049404;28;20836;-22
2021/07/21 04:00:56;;;;;;;16.08;8.23;;;;;;;23.02;53.09;99743.94;5031502;28;20551;-23
2021/07/21 04:03:22;;;;;;;15.95;9.30;;;;;;;23.11;52.93;99746.75;5031444;28;20033;-23
2021/07/21 04:05:48;;;;;;;13.50;8.73;;;;;;;23.19;53.07;99767.75;5031608;28;20033;-23
2021/07/21 04:08:14;;;;;;;13.25;8.52;;;;;;;23.43;52.64;99763.88;5015321;28;20037;-23
2021/07/21 04:10:39;;;;;;;14.65;9.13;;;;;;;23.48;52.48;99766.47;5014720;28;20095;-23
2021/07/21 04:13:05;;;;;;;12.98;8.48;;;;;;;23.39;52.29;99757.44;5031474;28;20025;-22
2021/07/21 04:15:30;;;;;;;14.40;8.98;;;;;;;23.26;52.97;99761.88;5031259;28;20044;-22
2021/07/21 04:17:56;;;;;;;17.75;9.48;;;;;;;23.35;52.82;99770.06;5048968;28;20493;-22
2021/07/21 04:20:22;;;;;;;16.00;9.38;;;;;;;23.47;52.45;99776.53;5014890;28;20028;-23
2021/07/21 04:22:49;;;;;;;14.98;9.20;;;;;;;23.56;52.38;99779.31;5031082;28;20044;-23
2021/07/21 04:25:15;;;;;;;13.73;9.43;;;;;;;23.54;52.69;99781.56;5049000;28;20090;-22
2021/07/21 04:27:41;;;;;;;15.73;9.02;;;;;;;23.45;52.33;99764.38;5031407;28;20068;-22
2021/07/21 04:30:09;;;;;;;15.55;9.15;;;;;;;23.67;52.30;99780.66;5014517;28;20511;-22
2021/07/21 04:32:34;;;;;;;15.45;9.15;;;;;;;23.51;52.14;99765.03;5048427;28;20024;-23
2021/07/21 04:35:00;;;;;;;12.73;9.07;;;;;;;23.65;52.23;99791.03;5048648;28;20174;-22
2021/07/21 04:37:25;;;;;;;14.50;8.73;;;;;;;23.75;52.20;99781.81;5030599;28;20033;-23
2021/07/21 04:39:52;;;;;;;15.38;9.13;;;;;;;23.83;51.99;99793.91;5048526;28;20036;-22
2021/07/21 04:42:18;;;;;;;18.17;10.48;;;;;;;23.91;52.03;99779.50;5048841;28;20029;-22
2021/07/21 04:44:43;;;;;;;16.83;10.38;;;;;;;24.01;51.40;99786.59;5030529;28;20037;-23
2021/07/21 04:47:09;;;;;;;13.45;8.15;;;;;;;23.88;51.84;99780.13;5030895;28;20049;-22
2021/07/21 04:49:38;;;;;;;15.15;9.40;;;;;;;23.89;52.00;99784.47;5030303;28;20045;-23
2021/07/21 04:52:04;;;;;;;13.13;10.05;;;;;;;23.87;51.57;99781.25;5030847;28;20896;-23
2021/07/21 04:54:30;;;;;;;16.02;9.48;;;;;;;23.94;51.69;99781.59;5030435;28;20033;-22
2021/07/21 04:56:56;;;;;;;14.10;9.77;;;;;;;24.11;51.26;99799.09;5030572;28;20373;-23
2021/07/21 04:59:21;;;;;;;15.18;10.63;;;;;;;24.16;51.68;99802.50;5048361;28;20036;-23
2021/07/21 05:01:48;;;;;;;16.80;8.77;;;;;;;24.34;51.06;99806.06;5048103;28;20070;-23
2021/07/21 05:04:14;;;;;;;19.67;12.13;;;;;;;24.54;50.90;99795.69;5048129;28;20043;-22
2021/07/21 05:06:39;;;;;;;14.15;9.68;;;;;;;24.47;50.75;99807.84;5047856;28;20032;-22
2021/07/21 05:09:06;;;;;;;16.23;9.80;;;;;;;24.59;50.61;99814.63;5047527;28;20033;-22
2021/07/21 05:11:32;;;;;;;16.48;9.43;;;;;;;24.50;50.72;99811.09;5047503;28;20512;-22
2021/07/21 05:13:57;;;;;;;12.77;9.30;;;;;;;24.56;51.10;99810.63;5047938;28;20040;-23
2021/07/21 05:16:23;;;;;;;15.52;10.15;;;;;;;24.58;50.77;99802.94;5047699;28;20481;-23
2021/07/21 05:18:48;;;;;;;12.27;8.80;;;;;;;24.75;50.04;99810.31;5030260;28;20035;-23
2021/07/21 05:21:14;;;;;;;13.75;9.27;;;;;;;24.80;50.45;99821.06;5047799;28;20036;-23
2021/07/21 05:23:39;;;;;;;15.20;10.45;;;;;;;24.77;50.45;99821.72;5047753;28;20468;-22
2021/07/21 05:26:07;;;;;;;18.02;10.88;;;;;;;24.88;50.58;99824.91;5047833;28;20053;-22
2021/07/21 05:28:34;;;;;;;16.23;10.38;;;;;;;24.81;50.26;99809.03;5047557;28;20033;-22
2021/07/21 05:31:00;;;;;;;16.52;10.35;;;;;;;25.09;49.57;99832.47;5047504;28;20029;-23
2021/07/21 05:33:25;;;;;;;17.15;9.20;;;;;;;25.00;49.84;99816.09;5048044;28;20460;-22
2021/07/21 05:35:51;;;;;;;16.50;9.38;;;;;;;25.03;49.80;99818.19;5047617;28;20029;-22
2021/07/21 05:38:17;;;;;;;16.73;9.82;;;;;;;25.12;49.97;99827.16;5047406;28;20037;-22
2021/07/21 05:40:42;;;;;;;13.73;9.70;;;;;;;25.23;50.21;99816.75;5047497;28;20219;-22
2021/07/21 05:43:08;;;;;;;20.73;9.93;;;;;;;25.70;48.92;99811.34;5047465;28;20794;-22
2021/07/21 05:45:33;;;;;;;14.95;9.63;;;;;;;25.48;49.65;99817.84;5047335;28;20405;-23
2021/07/21 05:47:59;;;;;;;15.88;10.60;;;;;;;25.59;48.93;99813.63;5047478;28;20500;-23
2021/07/21 05:50:24;;;;;;;18.55;10.02;;;;;;;25.42;49.37;99805.50;5045967;28;20110;-22
2021/07/21 05:52:50;;;;;;;20.25;11.05;;;;;;;25.51;49.38;99806.25;5047165;28;20040;-22
2021/07/21 05:55:16;;;;;;;23.40;9.30;;;;;;;25.29;49.25;99804.53;5047330;28;20028;-22
2021/07/21 05:57:44;;;;;;;16.92;9.02;;;;;;;25.20;49.45;99818.16;5047333;28;20048;-22
2021/07/21 06:00:09;;;;;;;;;;;;;;;25.61;48.64;99822.28;5047492;28;20037;-22
2021/07/21 06:02:35;;;;;;;15.48;9.88;;;;;;;25.63;49.70;99836.41;5046980;28;19915;-22
2021/07/21 06:05:00;;;;;;;15.30;10.13;;;;;;;25.74;48.95;99827.88;5047130;28;20094;-22
2021/07/21 06:07:26;;;;;;;18.00;10.52;;;;;;;26.00;48.26;99828.59;5047111;28;20036;-22
2021/07/21 06:09:51;;;;;;;15.38;10.00;;;;;;;26.15;48.49;99840.13;5047069;28;20037;-22
2021/07/21 06:12:17;;;;;;;12.40;8.48;;;;;;;25.95;47.82;99826.06;5047154;28;20763;-22
2021/07/21 06:14:42;;;;;;;14.45;10.65;;;;;;;25.92;48.11;99836.84;5046978;28;20138;-22
2021/07/21 06:17:08;;;;;;;15.02;10.27;;;;;;;26.08;47.68;99832.44;5047161;28;20063;-22
2021/07/21 06:19:34;;;;;;;16.20;8.57;;;;;;;26.03;47.15;99827.97;5047203;28;20041;-22
2021/07/21 06:22:03;;;;;;;16.15;9.60;;;;;;;25.99;47.36;99835.22;5047033;28;20825;-22
2021/07/21 06:24:29;;;;;;;14.43;8.93;;;;;;;25.89;46.57;99821.06;5046724;28;20029;-22
2021/07/21 06:26:54;;;;;;;15.68;10.10;;;;;;;26.05;46.62;99839.38;5029188;28;20036;-22
2021/07/21 06:29:20;;;;;;;29.30;11.35;;;;;;;26.22;46.31;99846.69;5046985;28;20214;-23
2021/07/21 06:31:45;;;;;;;17.73;10.07;;;;;;;26.29;45.24;99835.22;5046945;28;20128;-22
2021/07/21 06:34:11;;;;;;;17.02;9.68;;;;;;;26.27;46.22;99848.41;5046947;28;20037;-22
2021/07/21 06:36:36;;;;;;;16.63;10.32;;;;;;;26.20;45.49;99842.69;5046613;28;20090;-22
2021/07/21 06:39:02;;;;;;;14.10;9.35;;;;;;;26.18;45.54;99834.00;5046848;28;20485;-22
2021/07/21 06:41:27;;;;;;;15.55;9.32;;;;;;;26.46;45.11;99851.53;5046778;28;20481;-22
2021/07/21 06:43:54;;;;;;;16.63;10.70;;;;;;;26.45;45.00;99858.13;5046948;28;20086;-22
2021/07/21 06:46:20;;;;;;;15.38;9.55;;;;;;;26.10;45.39;99843.06;5046758;28;20025;-22
2021/07/21 06:48:45;;;;;;;14.43;9.77;;;;;;;25.96;46.12;99849.53;5046575;28;20036;-22
2021/07/21 06:51:11;;;;;;;15.38;9.38;;;;;;;25.85;45.89;99837.34;5046374;28;20064;-22
2021/07/21 06:53:36;;;;;;;15.27;8.85;;;;;;;26.27;45.38;99845.69;5046716;28;20047;-22
2021/07/21 06:56:03;;;;;;;17.08;8.65;;;;;;;26.45;44.79;99830.78;5047379;28;20048;-22
2021/07/21 06:58:28;;;;;;;16.13;9.13;;;;;;;26.89;45.16;99840.66;5046534;28;20899;-22
2021/07/21 07:00:54;;;;;;;15.73;9.82;;;;;;;26.80;44.75;99833.31;5048235;28;20275;-22
2021/07/21 07:03:19;;;;;;;18.10;10.52;;;;;;;27.20;44.09;99832.03;5050635;28;20484;-22
2021/07/21 07:05:46;;;;;;;16.27;9.63;;;;;;;27.28;43.57;99828.44;5051031;28;20040;-22
2021/07/21 07:08:11;;;;;;;15.05;10.00;;;;;;;27.29;42.93;99831.97;5033031;28;20029;-22
2021/07/21 07:10:37;;;;;;;17.15;9.88;;;;;;;27.51;42.75;99839.00;5050199;28;20462;-22
2021/07/21 07:13:04;;;;;;;15.05;9.50;;;;;;;27.76;42.26;99834.38;5050127;28;20044;-22
2021/07/21 07:15:30;;;;;;;;;;;;;;;27.83;42.32;99842.84;5050757;28;20061;-22
2021/07/21 07:17:55;;;;;;;15.82;9.32;;;;;;;27.90;41.40;99840.34;5050204;28;19993;-22
2021/07/21 07:20:21;;;;;;;14.88;9.85;;;;;;;27.64;41.85;99838.69;5050182;28;20033;-22
2021/07/21 07:22:46;;;;;;;15.93;9.95;;;;;;;27.91;42.14;99824.72;5049708;28;20029;-22
2021/07/21 07:25:12;;;;;;;16.50;9.63;;;;;;;27.48;41.42;99823.22;5050209;28;20033;-22
2021/07/21 07:27:37;;;;;;;18.10;10.68;;;;;;;27.78;40.81;99826.59;5049741;28;20408;-22
2021/07/21 07:30:04;;;;;;;15.85;9.68;;;;;;;27.88;40.45;99836.38;5050424;28;20119;-23
2021/07/21 07:32:30;;;;;;;15.53;10.53;;;;;;;28.26;40.10;99830.56;5049675;28;20075;-22
2021/07/21 07:34:55;;;;;;;14.63;9.68;;;;;;;28.12;40.47;99844.59;5050044;28;20497;-22
2021/07/21 07:37:21;;;;;;;14.43;10.60;;;;;;;28.00;39.68;99836.38;5049903;28;20381;-22
2021/07/21 07:39:46;;;;;;;17.52;10.07;;;;;;;28.17;40.45;99825.16;5050289;28;20469;-22
2021/07/21 07:42:11;;;;;;;15.75;9.70;;;;;;;28.19;39.25;99835.81;5049915;28;20033;-22
2021/07/21 07:44:37;;;;;;;18.67;9.65;;;;;;;28.11;39.71;99832.03;5049715;28;20043;-22
2021/07/21 07:47:03;;;;;;;17.15;9.95;;;;;;;28.25;39.10;99828.94;5049914;28;20029;-22
2021/07/21 07:49:28;;;;;;;17.60;9.18;;;;;;;28.59;38.05;99826.88;5049240;28;20049;-22
2021/07/21 07:51:54;;;;;;;16.55;9.63;;;;;;;28.43;38.95;99835.78;5049090;28;20075;-22
2021/07/21 07:54:21;;;;;;;16.55;10.25;;;;;;;28.64;38.81;99835.66;5049135;28;20044;-22
2021/07/21 07:56:46;;;;;;;17.55;10.27;;;;;;;28.52;36.77;99832.16;5049208;28;20032;-22
2021/07/21 07:59:11;;;;;;;14.90;9.85;;;;;;;28.71;36.07;99831.53;5049412;28;20048;-22
2021/07/21 08:01:37;;;;;;;12.88;8.82;;;;;;;28.47;35.98;99821.41;5049445;28;20032;-22
2021/07/21 08:04:02;;;;;;;14.40;9.85;;;;;;;28.57;35.59;99818.19;5049320;28;20039;-22
2021/07/21 08:06:28;;;;;;;15.40;9.48;;;;;;;28.59;36.08;99822.19;5049110;28;20025;-22
2021/07/21 08:08:53;;;;;;;13.50;9.82;;;;;;;28.55;36.05;99820.50;5049237;28;20029;-22
2021/07/21 08:11:19;;;;;;;16.98;10.05;;;;;;;28.64;34.84;99821.94;5049251;28;20488;-22
2021/07/21 08:13:44;;;;;;;15.25;10.32;;;;;;;28.73;34.69;99830.06;5048266;28;20029;-22
2021/07/21 08:16:10;;;;;;;13.95;9.13;;;;;;;28.79;35.07;99831.41;5049577;28;20790;-22
2021/07/21 08:18:36;;;;;;;15.25;8.75;;;;;;;28.86;35.40;99819.84;5048621;28;20021;-22
2021/07/21 08:21:01;;;;;;;16.65;10.07;;;;;;;28.85;34.53;99829.19;5049272;28;20029;-22
2021/07/21 08:23:26;;;;;;;13.68;9.18;;;;;;;28.99;33.84;99828.81;5049149;28;20029;-22
2021/07/21 08:25:52;;;;;;;12.90;9.30;;;;;;;29.11;34.28;99831.53;5048800;28;20528;-22
2021/07/21 08:28:18;;;;;;;13.50;9.60;;;;;;;29.30;34.03;99817.19;5048987;28;20036;-22
2021/07/21 08:30:47;;;;;;;15.40;9.43;;;;;;;29.68;34.13;99826.00;5048418;28;20040;-22
2021/07/21 08:33:12;;;;;;;14.80;9.52;;;;;;;29.62;33.36;99820.75;5048578;28;20032;-22
2021/07/21 08:35:38;;;;;;;14.55;9.18;;;;;;;30.04;32.49;99811.22;5048758;28;20041;-22
2021/07/21 08:38:04;;;;;;;18.17;10.00;;;;;;;29.75;32.96;99813.28;5049115;28;20037;-23
2021/07/21 08:40:29;;;;;;;13.85;9.02;;;;;;;29.90;32.93;99830.91;5048542;28;20044;-22
2021/07/21 08:42:55;;;;;;;14.80;9.15;;;;;;;29.95;32.67;99816.88;5048664;28;20044;-22
2021/07/21 08:45:21;;;;;;;13.68;8.65;;;;;;;29.63;32.15;99803.13;5048541;28;20037;-22
2021/07/21 08:47:46;;;;;;;12.68;8.45;;;;;;;30.01;31.52;99806.41;5048625;28;20428;-22
2021/07/21 08:50:12;;;;;;;14.90;9.57;;;;;;;29.97;32.06;99816.53;5048259;28;20052;-22
2021/07/21 08:52:37;;;;;;;14.18;8.95;;;;;;;29.86;30.69;99810.00;5048091;28;20079;-22
2021/07/21 08:55:05;;;;;;;13.55;9.70;;;;;;;29.78;31.70;99817.25;5048201;28;20040;-22
2021/07/21 08:57:32;;;;;;;18.02;10.25;;;;;;;29.86;31.01;99810.78;5048330;28;20378;-22
2021/07/21 08:59:58;;;;;;;14.40;10.20;;;;;;;30.05;31.61;99801.78;5048291;28;20041;-22
2021/07/21 09:02:24;;;;;;;14.38;9.80;;;;;;;30.24;30.55;99803.81;5047988;28;20566;-22
2021/07/21 09:04:49;;;;;;;16.90;9.25;;;;;;;30.41;30.27;99808.94;5031901;28;20037;-22
2021/07/21 09:07:14;;;;;;;15.93;9.45;;;;;;;30.16;30.05;99807.53;5048203;28;20463;-22
2021/07/21 09:09:40;;;;;;;13.43;8.98;;;;;;;30.41;30.01;99811.69;5048466;28;20032;-22
2021/07/21 09:12:07;;;;;;;15.07;9.77;;;;;;;30.54;30.08;99789.56;5048289;28;20040;-22
2021/07/21 09:14:32;;;;;;;15.20;9.95;;;;;;;30.90;30.03;99806.84;5048147;28;20605;-22
2021/07/21 09:17:12;;;;;;;15.10;10.63;;;;;;;31.02;29.45;99798.44;5047926;28;20048;-22
2021/07/21 09:19:41;;;;;;;16.45;10.25;;;;;;;30.88;29.72;99798.16;5047775;28;20037;-22
2021/07/21 09:22:18;;;;;;;18.88;10.65;;;;;;;30.56;29.95;99790.78;5047892;28;20044;-22
2021/07/21 09:25:02;;;;;;;13.23;9.95;;;;;;;30.89;28.88;99794.25;5047602;28;20111;-22
2021/07/21 09:27:28;;;;;;;17.77;9.65;;;;;;;30.76;29.25;99788.06;5047597;28;20028;-22
2021/07/21 09:29:53;;;;;;;15.25;10.95;;;;;;;30.89;29.45;99783.22;5048111;28;20025;-22
2021/07/21 09:32:19;;;;;;;13.77;9.50;;;;;;;31.41;28.47;99796.41;5047573;28;20036;-22
2021/07/21 09:34:47;;;;;;;15.18;9.48;;;;;;;31.95;27.55;99805.59;5047308;28;20029;-22
2021/07/21 09:37:12;;;;;;;18.13;10.40;;;;;;;31.51;27.82;99792.28;5014148;28;20118;-22
2021/07/21 09:39:39;;;;;;;17.85;9.68;;;;;;;31.15;28.46;99794.38;5047603;28;20032;-22
2021/07/21 09:42:05;;;;;;;14.90;9.52;;;;;;;30.77;28.40;99765.69;5048126;28;20029;-22
2021/07/21 09:44:36;;;;;;;15.13;10.25;;;;;;;31.21;26.92;99798.41;5047120;28;20064;-22
2021/07/21 09:47:19;;;;;;;13.77;9.85;;;;;;;31.06;27.33;99771.78;5047099;28;20510;-22
2021/07/21 09:49:45;;;;;;;16.08;10.10;;;;;;;31.11;27.57;99784.44;5046974;28;20060;-22
2021/07/21 09:52:22;;;;;;;15.57;9.70;;;;;;;31.70;27.14;99785.13;5047194;28;20153;-22
2021/07/21 09:55:04;;;;;;;15.30;10.18;;;;;;;32.22;26.52;99791.84;5047435;28;20048;-22
2021/07/21 09:57:29;;;;;;;13.75;9.40;;;;;;;32.13;26.64;99794.88;5047242;28;20033;-22
2021/07/21 09:59:57;;;;;;;14.15;9.88;;;;;;;31.71;27.38;99797.72;5047407;28;20044;-22
2021/07/21 10:02:25;;;;;;;14.68;9.82;;;;;;;31.52;27.12;99771.03;5047071;28;20025;-22
2021/07/21 10:04:50;;;;;;;16.88;10.13;;;;;;;31.80;26.51;99770.72;5047065;28;20111;-22
2021/07/21 10:09:44;;;;;;;14.10;8.60;;;;;;;32.01;25.80;99776.56;5013863;28;20029;-22
2021/07/21 10:12:17;;;;;;;15.18;9.70;;;;;;;31.73;26.07;99773.34;5046949;28;20025;-21
2021/07/21 10:14:58;;;;;;;13.65;8.52;;;;;;;31.88;25.21;99777.16;5047015;28;20120;-22
2021/07/21 10:17:25;;;;;;;13.93;9.43;;;;;;;31.82;25.74;99776.66;5046944;28;20036;-23
2021/07/21 10:19:50;;;;;;;11.57;7.97;;;;;;;32.14;24.73;99762.56;5046991;28;20094;-22
2021/07/21 10:22:16;;;;;;;13.27;9.68;;;;;;;31.74;24.98;99772.19;5047141;28;20037;-22
2021/07/21 10:24:41;;;;;;;21.08;10.20;;;;;;;31.99;26.09;99751.31;5046927;28;20064;-22
2021/07/21 10:27:07;;;;;;;15.18;8.63;;;;;;;32.22;24.97;99758.75;5046891;28;20032;-22
2021/07/21 10:29:32;;;;;;;12.07;8.70;;;;;;;32.08;25.18;99764.06;5047045;28;20227;-22
2021/07/21 10:31:58;;;;;;;11.57;8.38;;;;;;;32.27;24.63;99754.88;5047110;28;20045;-22
2021/07/21 10:34:23;;;;;;;14.60;8.85;;;;;;;32.28;24.51;99750.94;5046915;28;20072;-22
2021/07/21 10:36:49;;;;;;;14.82;9.02;;;;;;;32.40;24.25;99759.00;5050037;28;20036;-22
2021/07/21 10:39:22;;;;;;;14.75;8.27;;;;;;;32.40;25.13;99748.75;5051411;28;20036;-22
2021/07/21 10:41:47;;;;;;;16.15;8.70;;;;;;;32.34;24.44;99739.19;5051085;28;20021;-22
2021/07/21 10:44:14;;;;;;;14.20;8.48;;;;;;;32.68;23.92;99736.50;5033502;28;20036;-22
2021/07/21 10:46:43;;;;;;;16.43;9.83;;;;;;;32.92;24.44;99734.41;5050793;28;20029;-22
2021/07/21 11:00:17;;;;;;;13.40;9.05;;;;;;;33.29;23.00;99725.31;5050859;28;20040;-22
2021/07/21 11:02:43;;;;;;;16.02;8.90;;;;;;;33.47;23.21;99725.44;5050683;28;20021;-22
2021/07/21 11:05:35;;;;;;;12.90;6.88;;;;;;;33.45;17.35;99736.91;5033031;28;20310;-22
2021/07/21 11:08:02;;;;;;;12.77;7.60;;;;;;;33.18;17.89;99714.97;5032713;28;20048;-22
2021/07/21 11:10:37;;;;;;;10.73;6.70;;;;;;;33.66;17.27;99727.22;5032305;28;20033;-22
2021/07/21 11:13:07;;;;;;;12.95;7.32;;;;;;;33.74;18.01;99721.38;5050256;28;20028;-22
2021/07/21 11:15:39;;;;;;;12.88;7.05;;;;;;;33.79;18.53;99731.25;5032720;28;20032;-22
2021/07/21 11:18:27;;;;;;;14.40;7.50;;;;;;;33.73;17.92;99719.75;5050248;28;20043;-22
2021/07/21 11:21:05;;;;;;;11.55;6.50;;;;;;;33.51;17.96;99716.03;5034725;28;20048;-21
2021/07/21 11:23:40;;;;;;;14.02;6.38;;;;;;;33.28;18.30;99718.97;5050168;28;20021;-22
2021/07/21 11:26:33;;;;;;;10.55;6.70;;;;;;;33.60;17.29;99727.53;5050023;28;20040;-22
2021/07/21 11:29:24;;;;;;;9.50;6.60;;;;;;;33.75;16.96;99722.16;5046281;28;20048;-22
2021/07/21 11:31:50;;;;;;;12.52;7.18;;;;;;;34.10;16.86;99718.78;5049979;28;20059;-22
2021/07/21 11:34:37;;;;;;;10.68;7.35;;;;;;;34.42;18.16;99713.44;5050085;28;20086;-22
2021/07/21 11:37:07;;;;;;;11.10;7.20;;;;;;;34.31;18.41;99718.16;5049624;28;20033;-22
2021/07/21 11:39:42;;;;;;;15.15;8.27;;;;;;;34.16;19.05;99720.06;5050348;28;20170;-22
2021/07/21 11:42:16;;;;;;;12.75;7.60;;;;;;;34.46;19.75;99716.25;5049773;28;20037;-22
2021/07/21 11:44:42;;;;;;;10.77;7.50;;;;;;;34.38;17.91;99712.63;5049910;28;20037;-22